Latest Weather Observations for Gabo Island

IDN60801

Issued at 12:03 pm EDT Thursday 21 November 2019 (issued every 10 minutes, with the page automatically refreshed every 10 minutes)

About weather observations | Map of weather stations | Latest weather observations for NSW | Other Formats
Station Details ID: 084016 Name: GABO ISLAND LIGHTHOUSE Lat: -37.57 Lon: 149.92 Height: 15.2 m
Data from the previous 72 hours. | See also: Recent months at Gabo Island
Date/Time
EDT
Temp
°C
App
Temp
°C
Dew
Point
°C
Rel
Hum
%
Delta-T
°C
Wind Press
QNH
hPa
Press
MSL
hPa
Rain since
9am
mm
Dir  Spd
km/h
Gust
km/h
Spd
kts
Gust
kts
21/12:00pm 22.6 14.8 14.1 58 5.0 NNE 48 56 26 30 1005.9 1005.9 0.0
21/11:30am 22.3 14.6 14.3 60 4.7 NNE 48 56 26 30 1006.4 1006.4 0.0
21/11:00am 22.4 15.6 14.2 59 4.8 NNE 43 50 23 27 1006.8 1006.8 0.0
21/10:30am 21.9 17.0 14.2 61 4.5 NNE 33 41 18 22 1007.5 1007.5 0.0
21/10:00am 21.5 16.2 14.1 62 4.3 NNE 35 41 19 22 1007.8 1007.8 0.0
21/09:30am 20.8 14.3 13.9 64 4.0 NNE 41 50 22 27 1008.0 1008.0 0.0
21/09:00am 20.4 14.5 13.6 65 3.9 NE 37 44 20 24 1008.4 1008.4 0.0
21/08:30am 19.7 13.4 13.6 68 3.5 NE 39 44 21 24 1008.6 1008.6 0.0
21/08:00am 19.2 12.9 13.4 69 3.3 NNE 39 44 21 24 1008.7 1008.7 0.0
21/07:30am 19.4 13.7 12.9 66 3.7 NNE 35 43 19 23 1008.6 1008.6 0.0
21/07:00am 18.3 12.6 13.0 71 3.0 NNE 35 43 19 23 1008.8 1008.8 0.0
21/06:30am 17.9 11.7 12.7 71 2.9 NNE 37 46 20 25 1008.7 1008.7 0.0
21/06:00am 17.5 11.8 13.0 75 2.5 NNE 35 46 19 25 1008.7 1008.7 0.0
21/05:30am 17.1 11.1 13.2 78 2.2 NNE 37 48 20 26 1008.7 1008.7 0.0
21/05:00am 17.2 9.7 12.7 75 2.5 NNE 44 56 24 30 1008.4 1008.4 0.0
21/04:30am 16.9 8.4 13.2 79 2.1 NNE 50 63 27 34 1008.5 1008.5 0.0
21/04:00am 17.3 8.7 13.0 76 2.4 NNE 50 61 27 33 1008.7 1008.7 0.0
21/03:30am 17.6 9.6 12.4 71 2.9 NNE 46 57 25 31 1009.2 1009.2 0.0
21/03:00am 17.2 9.8 12.9 76 2.4 NNE 44 59 24 32 1009.8 1009.8 0.0
21/02:47am 17.4 9.1 13.7 79 2.1 NNE 50 69 27 37 1009.8 1009.8 0.0
21/02:30am 17.5 8.8 13.6 78 2.2 NNE 52 69 28 37 1009.9 1009.9 0.0
21/02:23am 17.4 9.1 13.9 80 2.0 NNE 50 69 27 37 1010.0 1010.0 0.0
21/02:00am 17.5 9.0 14.4 82 1.8 NNE 52 63 28 34 1010.5 1010.5 0.0
21/01:30am 17.6 9.1 14.3 81 1.9 NNE 52 65 28 35 1011.1 1011.1 0.0
21/01:00am 17.7 8.2 14.2 80 2.0 NNE 57 72 31 39 1011.1 1011.1 0.0
21/12:34am 17.8 8.8 13.9 78 2.2 NNE 54 72 29 39 1011.4 1011.4 0.0
21/12:30am 17.7 8.7 14.0 79 2.1 NNE 54 69 29 37 1011.7 1011.7 0.0
21/12:07am 17.8 9.5 13.9 78 2.2 NNE 50 70 27 38 1012.2 1012.2 0.0
21/12:00am 17.8 9.5 13.9 78 2.2 NNE 50 67 27 36 1012.5 1012.5 0.0
 
Date/Time
EDT
Temp
°C
App
Temp
°C
Dew
Point
°C
Rel
Hum
%
Delta-T
°C
Wind Press
QNH
hPa
Press
MSL
hPa
Rain since
9am
mm
Dir  Spd
km/h
Gust
km/h
Spd
kts
Gust
kts
20/11:35pm 17.9 8.9 13.9 77 2.3 NNE 54 72 29 39 1012.5 1012.5 0.0
20/11:30pm 17.8 9.5 13.9 78 2.2 NNE 50 67 27 36 1012.8 1012.8 0.0
20/11:02pm 17.7 8.5 14.6 82 1.8 NNE 56 74 30 40 1012.8 1012.8 0.0
20/11:00pm 17.8 8.4 14.5 81 1.9 NNE 57 74 31 40 1012.7 1012.7 0.0
20/10:30pm 17.8 8.6 14.9 83 1.7 NNE 57 72 31 39 1012.9 1012.9 0.0
20/10:23pm 17.9 9.3 15.0 83 1.7 NNE 54 72 29 39 1012.9 1012.9 0.0
20/10:00pm 17.8 9.6 15.1 84 1.6 NNE 52 63 28 34 1013.6 1013.6 0.0
20/09:30pm 17.6 9.6 14.7 83 1.7 NNE 50 65 27 35 1013.7 1013.7 0.0
20/09:00pm 17.6 8.8 14.5 82 1.8 NNE 54 67 29 36 1013.4 1013.4 0.0
20/08:30pm 17.6 9.9 14.3 81 1.9 NNE 48 63 26 34 1013.8 1013.8 0.0
20/08:00pm 17.6 9.4 14.1 80 2.0 NNE 50 63 27 34 1013.5 1013.5 0.0
20/07:30pm 17.7 9.9 14.2 80 2.0 NNE 48 59 26 32 1013.7 1013.7 0.0
20/07:00pm 18.1 10.5 13.5 74 2.6 NNE 46 59 25 32 1014.0 1014.0 0.0
20/06:30pm 18.2 9.7 13.2 72 2.8 NNE 50 63 27 34 1014.0 1014.0 0.0
20/06:00pm 18.5 9.1 12.8 69 3.2 NNE 54 61 29 33 1013.7 1013.7 0.0
20/05:30pm 18.7 10.1 13.0 69 3.2 NNE 50 63 27 34 1013.6 1013.6 0.0
20/05:00pm 18.8 10.3 13.3 70 3.1 NE 50 61 27 33 1014.0 1014.0 0.0
20/04:30pm 18.9 10.0 13.1 69 3.3 NE 52 63 28 34 1014.1 1014.1 0.0
20/04:16pm 19.1 11.0 13.3 69 3.3 NE 48 67 26 36 1014.3 1014.3 0.0
20/04:00pm 18.9 10.8 13.1 69 3.3 NE 48 61 26 33 1014.3 1014.3 0.0
20/03:30pm 19.0 10.8 12.8 67 3.5 NE 48 57 26 31 1014.3 1014.3 0.0
20/03:00pm 19.2 11.4 13.0 67 3.5 NE 46 57 25 31 1014.6 1014.6 0.0
20/02:30pm 19.0 10.7 12.6 66 3.6 NE 48 57 26 31 1014.4 1014.4 0.0
20/02:00pm 19.1 11.1 12.5 65 3.7 NE 46 56 25 30 1014.5 1014.5 0.0
20/01:30pm 19.1 11.8 12.9 67 3.5 NE 43 54 23 29 1014.9 1014.9 0.0
20/01:00pm 18.7 11.3 12.6 67 3.4 NE 43 52 23 28 1015.2 1015.2 0.0
20/12:30pm 18.6 11.1 12.7 68 3.3 NE 44 50 24 27 1015.3 1015.3 0.0
20/12:00pm 18.6 10.7 12.7 68 3.3 NE 46 52 25 28 1015.9 1015.9 0.0
20/11:30am 18.1 11.5 12.5 70 3.1 NE 39 44 21 24 1016.5 1016.5 0.0
20/11:00am 18.0 11.7 12.4 70 3.1 NE 37 48 20 26 1016.6 1016.6 0.0
20/10:30am 17.7 12.7 12.3 70 3.0 NE 30 33 16 18 1017.0 1017.0 0.0
20/10:00am 17.2 11.8 12.1 72 2.8 NE 32 35 17 19 1017.0 1017.0 0.0
20/09:30am 17.3 11.8 11.8 70 3.0 NE 32 35 17 19 1017.1 1017.1 0.0
20/09:00am 16.6 12.6 11.8 73 2.6 NE 24 30 13 16 1017.3 1017.3 0.0
20/08:30am 15.7 11.0 10.8 72 2.6 NE 26 30 14 16 1016.8 1016.8 0.0
20/08:00am 15.0 12.6 10.2 73 2.5 NNE 13 15 7 8 1017.1 1017.1 0.0
20/07:30am 14.5 12.5 10.1 75 2.3 NNE 11 11 6 6 1017.0 1017.0 0.0
20/07:00am 13.9 12.6 11.3 84 1.4 NNE 9 11 5 6 1016.9 1016.9 0.0
20/06:30am 12.8 11.9 10.5 86 1.2 NW 6 7 3 4 1016.9 1016.9 0.0
20/06:00am 12.1 10.9 9.7 85 1.2 NW 6 9 3 5 1016.9 1016.9 0.0
20/05:30am 11.3 9.1 9.3 87 1.0 NW 11 11 6 6 1016.7 1016.7 0.0
20/05:00am 12.3 11.0 10.0 86 1.2 WNW 7 9 4 5 1016.9 1016.9 0.0
20/04:30am 11.7 9.6 9.7 87 1.0 WNW 11 11 6 6 1016.9 1016.9 0.0
20/04:00am 11.5 9.8 9.9 90 0.8 NW 9 13 5 7 1016.8 1016.8 0.0
20/03:30am 11.9 9.9 10.1 89 0.9 NW 11 13 6 7 1016.8 1016.8 0.0
20/03:00am 11.8 9.7 9.8 87 1.0 NW 11 13 6 7 1016.5 1016.5 0.0
20/02:30am 12.4 9.9 9.6 83 1.4 WSW 13 15 7 8 1016.4 1016.4 0.0
20/02:00am 12.0 9.9 9.8 86 1.1 W 11 13 6 7 1016.7 1016.7 0.0
20/01:30am 12.4 10.4 10.3 87 1.1 WNW 11 15 6 8 1016.9 1016.9 0.0
20/01:00am 12.4 10.8 10.3 87 1.1 NW 9 11 5 6 1017.1 1017.1 0.0
20/12:30am 12.9 10.5 10.2 84 1.4 W 13 17 7 9 1017.0 1017.0 0.0
20/12:00am 13.7 10.1 10.6 81 1.6 WSW 20 24 11 13 1017.0 1017.0 0.0
 
Date/Time
EDT
Temp
°C
App
Temp
°C
Dew
Point
°C
Rel
Hum
%
Delta-T
°C
Wind Press
QNH
hPa
Press
MSL
hPa
Rain since
9am
mm
Dir  Spd
km/h
Gust
km/h
Spd
kts
Gust
kts
19/11:30pm 13.5 10.1 10.4 81 1.6 WSW 19 22 10 12 1017.1 1017.1 0.0
19/11:00pm 14.1 10.8 10.9 81 1.7 WSW 19 24 10 13 1017.1 1017.1 0.0
19/10:30pm 14.4 10.6 11.0 80 1.8 SW 22 26 12 14 1016.8 1016.8 0.0
19/10:00pm 14.4 10.9 10.8 79 1.9 SW 20 24 11 13 1016.8 1016.8 0.0
19/09:30pm 14.5 11.2 11.5 82 1.6 SW 20 24 11 13 1016.7 1016.7 0.0
19/09:00pm 14.7 10.4 10.9 78 2.0 SW 24 30 13 16 1016.2 1016.2 0.0
19/08:30pm 15.0 10.3 11.9 82 1.7 SW 28 32 15 17 1015.9 1015.9 0.0
19/08:00pm 14.8 10.0 11.6 81 1.7 SSW 28 35 15 19 1015.6 1015.6 0.0
19/07:30pm 14.7 9.4 12.5 87 1.2 SSW 32 37 17 20 1015.3 1015.3 0.0
19/07:00pm 15.3 9.9 12.2 82 1.7 SW 32 39 17 21 1014.8 1014.8 0.0
19/06:30pm 15.5 9.9 11.6 77 2.1 SW 32 35 17 19 1014.3 1014.3 0.0
19/06:00pm 15.6 8.7 11.5 76 2.2 SSW 39 44 21 24 1014.0 1014.0 0.0
19/05:30pm 16.3 8.9 11.3 72 2.7 SSW 41 46 22 25 1013.2 1013.2 0.0
19/05:00pm 16.6 9.9 11.0 69 3.0 SSW 37 41 20 22 1013.0 1013.0 0.0
19/04:30pm 15.8 8.5 10.3 70 2.9 SSW 39 46 21 25 1012.6 1012.6 0.0
19/04:00pm 15.8 8.6 10.7 71 2.7 SSW 39 46 21 25 1012.4 1012.4 0.0
19/03:30pm 16.2 9.6 11.2 72 2.7 SSW 37 43 20 23 1012.5 1012.5 0.0
19/03:00pm 16.1 9.4 11.1 72 2.7 SSW 37 43 20 23 1012.5 1012.5 0.0
19/02:30pm 16.1 9.4 10.9 71 2.8 SSW 37 43 20 23 1012.3 1012.3 0.0
19/02:00pm 15.9 8.8 10.8 71 2.7 SSW 39 46 21 25 1012.0 1012.0 0.0
19/01:30pm 15.9 9.3 11.2 73 2.5 SSW 37 46 20 25 1011.9 1011.9 0.0
19/01:00pm 16.1 8.4 11.5 74 2.5 SSW 43 50 23 27 1011.8 1011.8 0.0
19/12:30pm 16.9 8.9 12.4 75 2.5 SSW 46 54 25 29 1011.5 1011.5 0.0
19/12:00pm 16.9 8.8 12.0 73 2.7 SSW 46 56 25 30 1011.4 1011.4 0.0
19/11:30am 16.3 8.4 11.5 73 2.6 SSW 44 52 24 28 1011.4 1011.4 0.0
19/11:00am 16.9 10.1 11.8 72 2.8 SSW 39 48 21 26 1011.4 1011.4 0.0
19/10:30am 16.6 11.2 10.8 68 3.1 SSW 30 35 16 19 1011.4 1011.4 0.0
19/10:00am 16.8 13.8 10.8 67 3.2 SSW 17 24 9 13 1011.4 1011.4 0.0
19/09:30am 17.8 15.0 11.2 65 3.6 SW 17 19 9 10 1011.3 1011.3 0.0
19/09:00am 18.4 14.5 8.6 53 5.1 W 19 24 10 13 1011.2 1011.2 0.0
19/08:30am 18.0 13.9 8.5 53 4.9 W 20 26 11 14 1011.2 1011.2 0.0
19/08:00am 16.6 12.6 8.4 58 4.2 WNW 19 24 10 13 1011.0 1011.0 0.0
19/07:30am 15.3 11.9 9.3 67 3.1 WNW 17 24 9 13 1011.0 1011.0 0.0
19/07:00am 14.4 10.7 9.3 71 2.6 WNW 19 24 10 13 1011.2 1011.2 0.0
19/06:30am 13.6 10.5 10.3 80 1.7 WNW 17 22 9 12 1011.1 1011.1 0.0
19/06:00am 13.1 10.0 10.2 82 1.5 WNW 17 20 9 11 1011.0 1011.0 0.0
19/05:30am 13.2 10.2 10.5 84 1.4 WNW 17 20 9 11 1010.8 1010.8 0.0
19/05:00am 13.8 10.9 11.0 83 1.5 W 17 20 9 11 1010.6 1010.6 0.0
19/04:30am 14.3 10.9 11.1 81 1.7 WSW 20 28 11 15 1010.6 1010.6 0.0
19/04:00am 15.2 10.7 10.2 72 2.6 SW 24 30 13 16 1010.5 1010.5 0.0
19/03:30am 15.2 10.0 10.2 72 2.6 SW 28 32 15 17 1010.5 1010.5 0.0
19/03:00am 15.3 12.5 12.6 84 1.5 SW 19 24 10 13 1010.6 1010.6 0.0
19/02:30am 14.8 12.2 12.0 83 1.5 WSW 17 20 9 11 1010.6 1010.6 0.0
19/02:00am 15.2 12.6 11.9 81 1.8 WSW 17 20 9 11 1010.4 1010.4 0.0
19/01:30am 14.7 12.5 10.7 77 2.1 WSW 13 17 7 9 1010.1 1010.1 0.0
19/01:00am 15.4 14.4 10.9 74 2.4 WSW 7 11 4 6 1010.5 1010.5 0.0
19/12:30am 16.7 12.9 11.3 70 2.9 SSW 22 28 12 15 1011.1 1011.1 0.0
19/12:00am 17.4 12.5 6.7 49 5.3 N 22 30 12 16 1010.4 1010.4 0.0
 
Date/Time
EDT
Temp
°C
App
Temp
°C
Dew
Point
°C
Rel
Hum
%
Delta-T
°C
Wind Press
QNH
hPa
Press
MSL
hPa
Rain since
9am
mm
Dir  Spd
km/h
Gust
km/h
Spd
kts
Gust
kts
18/11:30pm 17.7 11.2 6.6 48 5.5 N 30 35 16 19 1010.0 1010.0 0.0
18/11:00pm 18.5 12.1 5.1 41 6.5 N 28 35 15 19 1010.7 1010.7 0.0
18/10:30pm 17.2 12.0 7.2 51 5.0 N 24 28 13 15 1011.1 1011.1 0.0
18/10:00pm 16.0 13.1 9.7 66 3.3 NNW 15 17 8 9 1011.5 1011.5 0.0
18/09:30pm 15.5 12.4 10.2 70 2.8 NNW 17 17 9 9 1011.7 1011.7 0.0
18/09:00pm 16.4 15.9 12.6 78 2.1 ENE 7 9 4 5 1011.7 1011.7 0.0
18/08:30pm 17.0 16.4 12.3 74 2.6 SE 7 7 4 4 1011.8 1011.8 0.0
18/08:00pm 17.4 16.3 12.1 71 2.9 NE 9 13 5 7 1011.7 1011.7 0.0
18/07:30pm 17.0 16.0 11.1 68 3.2 NNE 7 15 4 8 1011.6 1011.6 0.0
18/07:00pm 18.0 17.1 11.4 65 3.6 NE 7 11 4 6 1011.5 1011.5 0.0
18/06:30pm 18.7 16.5 9.4 54 4.9 WSW 11 17 6 9 1011.4 1011.4 0.0
18/06:00pm 18.7 18.2 12.6 67 3.4 NNE 7 11 4 6 1011.3 1011.3 0.0
18/05:30pm 18.1 16.9 11.5 65 3.6 ENE 9 15 5 8 1011.3 1011.3 0.0
18/05:00pm 18.2 15.7 12.3 68 3.3 NE 17 28 9 15 1011.5 1011.5 0.0
18/04:30pm 17.7 14.4 12.7 72 2.8 NE 22 30 12 16 1011.4 1011.4 0.0
18/04:00pm 17.6 14.7 12.2 70 3.0 ENE 19 24 10 13 1011.7 1011.7 0.0
18/03:30pm 17.2 13.0 11.1 67 3.3 NE 24 30 13 16 1012.0 1012.0 0.0
18/03:00pm 17.2 13.6 10.4 64 3.6 ENE 20 22 11 12 1012.4 1012.4 0.0
18/02:30pm 17.0 13.8 9.8 62 3.8 E 17 20 9 11 1012.7 1012.7 0.0
18/02:00pm 16.8 13.3 8.8 59 4.1 E 17 20 9 11 1013.1 1013.1 0.0
18/01:30pm 17.4 14.3 8.9 57 4.4 E 15 19 8 10 1013.5 1013.5 0.0
18/01:00pm 17.0 14.4 7.7 54 4.7 E 11 15 6 8 1013.8 1013.8 0.0
18/12:30pm 17.2 14.6 7.7 53 4.8 SE 11 13 6 7 1014.4 1014.4 0.0

Other formats

Comma delimited format used in spreadsheet applications
http://www.bom.gov.au/fwo/IDN60801/IDN60801.94933.axf

JavaScript Object Notation format (JSON) in row-major order
http://www.bom.gov.au/fwo/IDN60801/IDN60801.94933.json

Data quality

Most of these data are generated automatically and are frequently updated. Quality checks on data are not normally performed. It is possible for incorrect values to appear. Refer to information at About Latest Weather Observations and please check the disclaimer before using these data.